Time;durP1;ratioP1;P1;durP2;ratioP2;P2;SDS_P1;SDS_P2;PMS_P1;PMS_P2;Temp;Humidity;BMP_temperature;BMP_pressure;BME280_temperature;BME280_humidity;BME280_pressure;Samples;Min_cycle;Max_cycle;Signal;HPM_P1;HPM_P2
2023/07/13 00:00:27;;;;;;;5.57;1.38;;;;;;;;;;5074093;28;20071;-68
2023/07/13 00:02:55;;;;;;;7.47;1.67;;;;;;;;;;5099143;28;20128;-70
2023/07/13 00:05:22;;;;;;;2.85;1.10;;;;;;;;;;5081596;28;20071;-71
2023/07/13 00:07:49;;;;;;;12.63;1.38;;;;;;;;;;5077578;28;20055;-66
2023/07/13 00:10:17;;;;;;;4.10;1.30;;;;;;;;;;5075252;28;20060;-70
2023/07/13 00:12:45;;;;;;;5.60;1.23;;;;;;;;;;5098427;28;20059;-69
2023/07/13 00:15:13;;;;;;;;;;;;;;;;;;5068639;28;20129;-68
2023/07/13 00:17:41;;;;;;;5.28;0.93;;;;;;;;;;5064146;28;20009;-69
2023/07/13 00:20:10;;;;;;;5.25;1.13;;;;;;;;;;5089148;28;20040;-69
2023/07/13 00:22:37;;;;;;;3.70;1.50;;;;;;;;;;5063644;28;20147;-68
2023/07/13 00:25:04;;;;;;;4.03;1.30;;;;;;;;;;5067219;28;20347;-69
2023/07/13 00:27:33;;;;;;;6.72;1.02;;;;;;;;;;5059169;28;20048;-71
2023/07/13 00:30:02;;;;;;;5.68;1.40;;;;;;;;;;5060468;28;20045;-70
2023/07/13 00:32:29;;;;;;;6.00;1.30;;;;;;;;;;5036763;28;20076;-70
2023/07/13 00:34:56;;;;;;;4.13;1.17;;;;;;;;;;5043734;28;20088;-70
2023/07/13 00:37:23;;;;;;;5.35;1.23;;;;;;;;;;5055598;28;20079;-67
2023/07/13 00:39:50;;;;;;;6.97;1.25;;;;;;;;;;5045424;28;20048;-69
2023/07/13 00:42:17;;;;;;;9.00;1.25;;;;;;;;;;5038993;28;20068;-67
2023/07/13 00:45:04;;;;;;;4.53;1.33;;;;;;;;;;5055407;28;20152;-67
2023/07/13 00:47:31;;;;;;;4.07;0.95;;;;;;;;;;5039945;28;20060;-70
2023/07/13 00:49:58;;;;;;;5.28;1.52;;;;;;;;;;5061323;28;20049;-70
2023/07/13 00:52:25;;;;;;;3.38;1.02;;;;;;;;;;5039910;28;20063;-69
2023/07/13 00:54:52;;;;;;;4.55;1.10;;;;;;;;;;5064585;28;20041;-67
2023/07/13 00:57:22;;;;;;;5.10;1.20;;;;;;;;;;5042139;28;20047;-68
2023/07/13 00:59:53;;;;;;;4.18;0.93;;;;;;;;;;5065990;28;20056;-66
2023/07/13 01:02:22;;;;;;;4.97;0.90;;;;;;;;;;5057561;28;20076;-69
2023/07/13 01:04:49;;;;;;;3.25;1.13;;;;;;;;;;5046147;28;20048;-67
2023/07/13 01:07:16;;;;;;;3.97;1.25;;;;;;;;;;5042280;28;20056;-69
2023/07/13 01:09:44;;;;;;;5.55;1.00;;;;;;;;;;5046830;28;20060;-68
2023/07/13 01:12:13;;;;;;;2.35;1.00;;;;;;;;;;5061195;28;20040;-69
2023/07/13 01:14:41;;;;;;;9.02;1.52;;;;;;;;;;5046027;28;20048;-70
2023/07/13 01:17:10;;;;;;;4.40;1.23;;;;;;;;;;5058698;28;20076;-67
2023/07/13 01:19:42;;;;;;;7.30;1.30;;;;;;;;;;5046206;28;20074;-69
2023/07/13 01:22:13;;;;;;;5.22;1.08;;;;;;;;;;5063331;28;20117;-68
2023/07/13 01:24:42;;;;;;;6.10;1.38;;;;;;;;;;5042459;28;20090;-65
2023/07/13 01:27:11;;;;;;;5.78;1.23;;;;;;;;;;5042749;28;20063;-68
2023/07/13 01:29:43;;;;;;;3.65;1.10;;;;;;;;;;5067776;28;20037;-68
2023/07/13 01:32:12;;;;;;;5.38;1.08;;;;;;;;;;5045658;28;20121;-67
2023/07/13 01:34:42;;;;;;;7.40;1.48;;;;;;;;;;5042247;28;20065;-67
2023/07/13 01:37:11;;;;;;;4.53;1.20;;;;;;;;;;5042440;28;20058;-68
2023/07/13 01:39:38;;;;;;;4.68;1.13;;;;;;;;;;5063274;28;20136;-69
2023/07/13 01:42:05;;;;;;;6.38;1.38;;;;;;;;;;5062165;28;20048;-67
2023/07/13 01:44:32;;;;;;;5.65;1.20;;;;;;;;;;5055982;28;20117;-69
2023/07/13 01:46:59;;;;;;;9.25;1.40;;;;;;;;;;5036551;28;20120;-67
2023/07/13 01:49:26;;;;;;;3.92;1.25;;;;;;;;;;5045992;28;20053;-66
2023/07/13 01:51:53;;;;;;;5.65;1.10;;;;;;;;;;5046179;28;20106;-65
2023/07/13 01:54:22;;;;;;;5.53;1.30;;;;;;;;;;5056820;28;20056;-67
2023/07/13 01:56:48;;;;;;;7.18;1.30;;;;;;;;;;5042417;28;20065;-67
2023/07/13 01:59:15;;;;;;;5.80;1.25;;;;;;;;;;5063644;28;20153;-69
2023/07/13 02:01:43;;;;;;;6.38;1.17;;;;;;;;;;5061607;28;20047;-67
2023/07/13 02:04:10;;;;;;;7.57;1.65;;;;;;;;;;5024347;28;20048;-66
2023/07/13 02:06:37;;;;;;;11.90;1.45;;;;;;;;;;5054550;28;20071;-67
2023/07/13 02:09:04;;;;;;;3.35;1.05;;;;;;;;;;5045286;28;20044;-67
2023/07/13 02:11:34;;;;;;;3.42;0.93;;;;;;;;;;5064391;28;20056;-69
2023/07/13 02:14:01;;;;;;;4.68;1.27;;;;;;;;;;5037700;28;20061;-69
2023/07/13 02:16:28;;;;;;;3.78;1.30;;;;;;;;;;5018433;28;20063;-68
2023/07/13 02:18:56;;;;;;;6.63;1.45;;;;;;;;;;5033861;28;20044;-67
2023/07/13 02:21:23;;;;;;;5.22;1.40;;;;;;;;;;5045430;28;20053;-66
2023/07/13 02:23:51;;;;;;;5.95;1.58;;;;;;;;;;5042888;28;20096;-69
2023/07/13 02:26:18;;;;;;;6.47;1.30;;;;;;;;;;5063818;28;20082;-67
2023/07/13 02:28:46;;;;;;;5.78;1.30;;;;;;;;;;5081658;28;20060;-70
2023/07/13 02:31:15;;;;;;;4.85;1.38;;;;;;;;;;5065982;28;20059;-69
2023/07/13 02:33:43;;;;;;;10.57;1.40;;;;;;;;;;5078553;28;20232;-68
2023/07/13 02:36:10;;;;;;;6.95;1.55;;;;;;;;;;5082988;28;20079;-67
2023/07/13 02:38:38;;;;;;;7.70;1.90;;;;;;;;;;5075657;28;20056;-64
2023/07/13 02:41:05;;;;;;;11.50;1.70;;;;;;;;;;5064621;28;20052;-69
2023/07/13 02:43:32;;;;;;;3.75;1.23;;;;;;;;;;5082530;28;20133;-67
2023/07/13 02:46:06;;;;;;;6.53;1.27;;;;;;;;;;5082437;28;20063;-65
2023/07/13 02:48:33;;;;;;;5.40;1.55;;;;;;;;;;5075381;28;20064;-67
2023/07/13 02:51:00;;;;;;;8.32;1.50;;;;;;;;;;5083357;28;20067;-68
2023/07/13 02:53:28;;;;;;;5.90;1.95;;;;;;;;;;5067173;28;20079;-67
2023/07/13 02:55:54;;;;;;;6.65;1.65;;;;;;;;;;5065681;28;20050;-69
2023/07/13 02:58:21;;;;;;;5.07;1.45;;;;;;;;;;5062590;28;20138;-70
2023/07/13 03:00:50;;;;;;;4.15;1.70;;;;;;;;;;5066297;28;20052;-66
2023/07/13 03:03:18;;;;;;;4.63;1.90;;;;;;;;;;5069970;28;20052;-68
2023/07/13 03:05:49;;;;;;;5.53;1.50;;;;;;;;;;5042271;28;20050;-67
2023/07/13 03:08:17;;;;;;;5.75;1.90;;;;;;;;;;5030440;28;20119;-68
2023/07/13 03:10:44;;;;;;;6.90;1.63;;;;;;;;;;5025701;28;20145;-68
2023/07/13 03:13:11;;;;;;;4.53;1.30;;;;;;;;;;4961073;28;20054;-68
2023/07/13 03:15:38;;;;;;;6.13;1.50;;;;;;;;;;4989712;28;20130;-65
2023/07/13 03:18:05;;;;;;;8.73;1.98;;;;;;;;;;5000979;28;20049;-68
2023/07/13 03:20:35;;;;;;;8.32;1.70;;;;;;;;;;4973974;28;20078;-65
2023/07/13 03:23:02;;;;;;;4.45;1.55;;;;;;;;;;5000331;28;20042;-64
2023/07/13 03:25:30;;;;;;;10.93;1.65;;;;;;;;;;4976629;28;20054;-70
2023/07/13 03:27:56;;;;;;;6.75;1.70;;;;;;;;;;4982816;28;20070;-68
2023/07/13 03:30:23;;;;;;;4.45;1.60;;;;;;;;;;4974291;28;20102;-66
2023/07/13 03:32:50;;;;;;;5.55;1.80;;;;;;;;;;4999967;28;20054;-67
2023/07/13 03:35:18;;;;;;;7.45;1.77;;;;;;;;;;4977127;28;20064;-68
2023/07/13 03:37:46;;;;;;;8.13;2.58;;;;;;;;;;4999252;28;20057;-69
2023/07/13 03:40:14;;;;;;;6.78;1.90;;;;;;;;;;4995152;28;20054;-67
2023/07/13 03:42:44;;;;;;;8.18;2.10;;;;;;;;;;4975862;28;20069;-69
2023/07/13 03:45:11;;;;;;;6.28;1.90;;;;;;;;;;4975648;28;20058;-65
2023/07/13 03:47:38;;;;;;;11.68;1.83;;;;;;;;;;4979376;28;20096;-66
2023/07/13 03:50:06;;;;;;;8.60;1.90;;;;;;;;;;4983843;28;20106;-67
2023/07/13 03:52:33;;;;;;;3.75;1.70;;;;;;;;;;4975326;28;20070;-69
2023/07/13 03:55:01;;;;;;;3.75;1.60;;;;;;;;;;4963085;28;20061;-69
2023/07/13 03:57:28;;;;;;;7.07;1.75;;;;;;;;;;4966783;28;20095;-68
2023/07/13 03:59:55;;;;;;;7.53;1.73;;;;;;;;;;4966716;28;20072;-69
2023/07/13 04:02:22;;;;;;;6.35;1.73;;;;;;;;;;4991958;28;20057;-68
2023/07/13 04:04:49;;;;;;;11.52;1.75;;;;;;;;;;4979723;28;20049;-67
2023/07/13 04:07:16;;;;;;;14.20;1.98;;;;;;;;;;4985243;28;20050;-65
2023/07/13 04:09:43;;;;;;;10.73;1.77;;;;;;;;;;4982908;28;20065;-67
2023/07/13 04:12:11;;;;;;;6.97;2.05;;;;;;;;;;4986408;28;20042;-70
2023/07/13 04:14:38;;;;;;;;;;;;;;;;;;4972724;28;20045;-67
2023/07/13 04:17:06;;;;;;;5.75;1.63;;;;;;;;;;4986108;28;19921;-68
2023/07/13 04:19:33;;;;;;;7.25;1.70;;;;;;;;;;5043785;28;20078;-67
2023/07/13 04:21:59;;;;;;;8.93;2.40;;;;;;;;;;5068114;28;20052;-67
2023/07/13 04:24:27;;;;;;;6.40;2.00;;;;;;;;;;5057912;28;20123;-67
2023/07/13 04:26:54;;;;;;;8.05;2.00;;;;;;;;;;5085589;28;20160;-69
2023/07/13 04:29:22;;;;;;;5.25;1.98;;;;;;;;;;5069493;28;20071;-69
2023/07/13 04:31:49;;;;;;;7.75;1.92;;;;;;;;;;5072846;28;20052;-68
2023/07/13 04:34:16;;;;;;;9.25;2.28;;;;;;;;;;5061076;28;20101;-66
2023/07/13 04:36:43;;;;;;;6.43;2.10;;;;;;;;;;5053640;28;20121;-68
2023/07/13 04:39:11;;;;;;;15.50;2.85;;;;;;;;;;4985060;28;20095;-67
2023/07/13 04:41:38;;;;;;;16.43;5.67;;;;;;;;;;4985321;28;20134;-66
2023/07/13 04:44:05;;;;;;;7.25;3.25;;;;;;;;;;4980155;28;20057;-67
2023/07/13 04:46:33;;;;;;;6.90;2.20;;;;;;;;;;4976465;28;20054;-70
2023/07/13 04:49:00;;;;;;;5.07;2.20;;;;;;;;;;4984351;28;20054;-68
2023/07/13 04:51:27;;;;;;;7.25;2.38;;;;;;;;;;4984202;28;20076;-68
2023/07/13 04:53:55;;;;;;;7.55;1.92;;;;;;;;;;4980837;28;20053;-66
2023/07/13 04:56:22;;;;;;;8.20;2.25;;;;;;;;;;4995184;28;20069;-70
2023/07/13 04:58:49;;;;;;;11.80;2.70;;;;;;;;;;4981073;28;20096;-68
2023/07/13 05:01:16;;;;;;;10.68;3.35;;;;;;;;;;4983896;28;20137;-67
2023/07/13 05:03:45;;;;;;;11.57;2.95;;;;;;;;;;4977868;28;20053;-70
2023/07/13 05:06:13;;;;;;;25.13;8.35;;;;;;;;;;4999502;28;20061;-68
2023/07/13 05:08:40;;;;;;;12.60;3.25;;;;;;;;;;4991742;28;21204;-71
2023/07/13 05:11:08;;;;;;;19.73;2.90;;;;;;;;;;4983541;28;20053;-67
2023/07/13 05:13:35;;;;;;;5.22;2.15;;;;;;;;;;4991115;28;20050;-66
2023/07/13 05:16:05;;;;;;;8.13;2.47;;;;;;;;;;4997510;28;20080;-67
2023/07/13 05:18:32;;;;;;;7.57;2.70;;;;;;;;;;5000361;28;20221;-66
2023/07/13 05:21:03;;;;;;;16.33;6.45;;;;;;;;;;4981219;28;20149;-71
2023/07/13 05:23:32;;;;;;;13.40;3.47;;;;;;;;;;4999807;28;20058;-69
2023/07/13 05:25:59;;;;;;;10.38;3.03;;;;;;;;;;4995465;28;20117;-70
2023/07/13 05:28:27;;;;;;;9.68;2.67;;;;;;;;;;4976425;28;20054;-67
2023/07/13 05:30:56;;;;;;;9.63;2.38;;;;;;;;;;5004256;28;20042;-68
2023/07/13 05:33:23;;;;;;;11.18;2.95;;;;;;;;;;4983976;28;20064;-69
2023/07/13 05:35:50;;;;;;;15.13;3.20;;;;;;;;;;4981404;28;20103;-68
2023/07/13 05:38:21;;;;;;;20.02;4.65;;;;;;;;;;4983008;28;20126;-66
2023/07/13 05:40:48;;;;;;;13.80;3.83;;;;;;;;;;5029565;28;20143;-68
2023/07/13 05:43:16;;;;;;;12.90;3.20;;;;;;;;;;5056412;28;20058;-70
2023/07/13 05:45:43;;;;;;;12.75;3.30;;;;;;;;;;5053291;28;20047;-68
2023/07/13 05:48:10;;;;;;;14.93;3.50;;;;;;;;;;5000519;28;20141;-64
2023/07/13 05:50:37;;;;;;;11.18;3.28;;;;;;;;;;4976192;28;20139;-65
2023/07/13 05:53:04;;;;;;;12.20;3.85;;;;;;;;;;4982523;28;20110;-68
2023/07/13 05:55:33;;;;;;;11.82;3.47;;;;;;;;;;4997208;28;20082;-70
2023/07/13 05:58:01;;;;;;;13.52;3.88;;;;;;;;;;5000864;28;20053;-68
2023/07/13 06:00:29;;;;;;;9.53;3.73;;;;;;;;;;4998304;28;20069;-69
2023/07/13 06:02:58;;;;;;;14.23;4.13;;;;;;;;;;4984603;28;20058;-65
2023/07/13 06:05:28;;;;;;;15.07;4.60;;;;;;;;;;4944095;28;20170;-70
2023/07/13 06:07:55;;;;;;;19.17;5.45;;;;;;;;;;4983071;28;20078;-68
2023/07/13 06:10:22;;;;;;;15.10;5.65;;;;;;;;;;5040499;28;20089;-69
2023/07/13 06:12:51;;;;;;;15.63;5.45;;;;;;;;;;5033557;28;20085;-68
2023/07/13 06:15:18;;;;;;;13.82;4.95;;;;;;;;;;4987779;28;20054;-70
2023/07/13 06:17:46;;;;;;;14.60;4.63;;;;;;;;;;5049222;28;20052;-67
2023/07/13 06:20:13;;;;;;;16.05;5.15;;;;;;;;;;5004669;28;20057;-70
2023/07/13 06:22:41;;;;;;;15.17;5.37;;;;;;;;;;5059581;28;20111;-65
2023/07/13 06:25:11;;;;;;;24.10;5.82;;;;;;;;;;5058804;28;20051;-70
2023/07/13 06:27:38;;;;;;;18.42;6.95;;;;;;;;;;5051675;28;20114;-67
2023/07/13 06:30:08;;;;;;;21.75;6.78;;;;;;;;;;5002007;28;20133;-68
2023/07/13 06:32:35;;;;;;;34.15;10.07;;;;;;;;;;4956198;28;20061;-68
2023/07/13 06:35:01;;;;;;;18.52;7.65;;;;;;;;;;4964369;28;20096;-68
2023/07/13 06:37:28;;;;;;;14.88;5.95;;;;;;;;;;5061777;28;20060;-66
2023/07/13 06:39:55;;;;;;;20.92;5.90;;;;;;;;;;5065812;28;20052;-68
2023/07/13 06:42:25;;;;;;;18.73;6.00;;;;;;;;;;5080812;28;20294;-67
2023/07/13 06:44:52;;;;;;;13.13;5.25;;;;;;;;;;5077131;28;20076;-71
2023/07/13 06:47:21;;;;;;;15.20;5.55;;;;;;;;;;5065677;28;20139;-71
2023/07/13 06:49:47;;;;;;;;;;;;;;;;;;5083772;28;20099;-68
2023/07/13 06:52:14;;;;;;;16.00;5.97;;;;;;;;;;5062946;28;20011;-68
2023/07/13 06:54:41;;;;;;;16.42;5.68;;;;;;;;;;5074286;28;20056;-66
2023/07/13 06:57:10;;;;;;;19.60;5.75;;;;;;;;;;5040980;28;20054;-67
2023/07/13 06:59:37;;;;;;;17.17;6.72;;;;;;;;;;4981958;28;20042;-66
2023/07/13 07:02:04;;;;;;;21.17;6.25;;;;;;;;;;4996428;28;20049;-68
2023/07/13 07:04:33;;;;;;;18.58;6.00;;;;;;;;;;4989943;28;20061;-68
2023/07/13 07:07:00;;;;;;;19.40;6.18;;;;;;;;;;5041340;28;20101;-68
2023/07/13 07:09:29;;;;;;;17.75;6.57;;;;;;;;;;5021252;28;20081;-67
2023/07/13 07:11:56;;;;;;;18.45;6.93;;;;;;;;;;4974334;28;20058;-67
2023/07/13 07:14:23;;;;;;;25.00;7.60;;;;;;;;;;4953713;28;20125;-68
2023/07/13 07:16:50;;;;;;;27.30;9.18;;;;;;;;;;5023369;28;20052;-70
2023/07/13 07:19:21;;;;;;;20.42;7.43;;;;;;;;;;5032758;28;20165;-69
2023/07/13 07:21:49;;;;;;;15.70;6.22;;;;;;;;;;4982620;28;20057;-72
2023/07/13 07:24:16;;;;;;;19.75;6.57;;;;;;;;;;4997681;28;20054;-66
2023/07/13 07:26:43;;;;;;;16.77;6.47;;;;;;;;;;4984417;28;21407;-66
2023/07/13 07:29:10;;;;;;;19.38;6.15;;;;;;;;;;4985350;28;20128;-65
2023/07/13 07:31:38;;;;;;;21.15;6.63;;;;;;;;;;4982740;28;20050;-65
2023/07/13 07:34:08;;;;;;;19.10;6.70;;;;;;;;;;5001152;28;20139;-66
2023/07/13 07:36:37;;;;;;;12.85;5.65;;;;;;;;;;4992905;28;20077;-65
2023/07/13 07:39:06;;;;;;;22.80;6.45;;;;;;;;;;4986478;28;20050;-68
2023/07/13 07:41:33;;;;;;;15.85;6.65;;;;;;;;;;4994968;28;20122;-68
2023/07/13 07:44:00;;;;;;;19.40;6.53;;;;;;;;;;4974472;28;20095;-66
2023/07/13 07:46:27;;;;;;;16.48;6.45;;;;;;;;;;5001226;28;20058;-65
2023/07/13 07:48:55;;;;;;;14.23;6.47;;;;;;;;;;4999440;28;20069;-66
2023/07/13 07:51:22;;;;;;;21.40;8.20;;;;;;;;;;5003360;28;20054;-64
2023/07/13 07:53:51;;;;;;;14.15;6.35;;;;;;;;;;4985206;28;20052;-68
2023/07/13 07:56:20;;;;;;;15.95;5.75;;;;;;;;;;5015315;28;20141;-64
2023/07/13 07:58:47;;;;;;;14.02;5.47;;;;;;;;;;4996581;28;20057;-67
2023/07/13 08:01:15;;;;;;;17.48;5.93;;;;;;;;;;5005013;28;20049;-68
2023/07/13 08:03:43;;;;;;;21.92;5.60;;;;;;;;;;4988386;28;20265;-68
2023/07/13 08:06:13;;;;;;;17.63;6.57;;;;;;;;;;5011607;28;20054;-69
2023/07/13 08:08:40;;;;;;;12.00;5.85;;;;;;;;;;5053998;28;20168;-70
2023/07/13 08:11:09;;;;;;;15.15;6.10;;;;;;;;;;4986818;28;20052;-71
2023/07/13 08:13:38;;;;;;;15.77;5.97;;;;;;;;;;5001789;28;20140;-69
2023/07/13 08:16:06;;;;;;;17.80;6.65;;;;;;;;;;4989475;28;20046;-69
2023/07/13 08:18:33;;;;;;;20.77;6.25;;;;;;;;;;5035789;28;20054;-71
2023/07/13 08:21:04;;;;;;;15.00;5.72;;;;;;;;;;4984850;28;20110;-68
2023/07/13 08:23:32;;;;;;;15.07;6.05;;;;;;;;;;5002829;28;20161;-70
2023/07/13 08:26:01;;;;;;;12.63;5.40;;;;;;;;;;4997979;28;20061;-65
2023/07/13 08:28:29;;;;;;;13.90;5.72;;;;;;;;;;4993655;28;20061;-67
2023/07/13 08:31:01;;;;;;;19.42;5.72;;;;;;;;;;4969861;28;20060;-68
2023/07/13 08:33:28;;;;;;;18.50;6.25;;;;;;;;;;4965645;28;20171;-68
2023/07/13 08:35:55;;;;;;;24.13;6.47;;;;;;;;;;4976989;28;20047;-67
2023/07/13 08:38:23;;;;;;;14.95;5.63;;;;;;;;;;4962135;28;20050;-66
2023/07/13 08:40:52;;;;;;;25.13;5.95;;;;;;;;;;4981711;28;20055;-68
2023/07/13 08:43:24;;;;;;;19.85;5.68;;;;;;;;;;4982917;28;20078;-68
2023/07/13 08:45:55;;;;;;;16.30;4.55;;;;;;;;;;4977916;28;20050;-66
2023/07/13 08:48:29;;;;;;;13.65;4.03;;;;;;;;;;4962677;28;20058;-69
2023/07/13 08:50:59;;;;;;;16.33;4.97;;;;;;;;;;4995772;28;20050;-68
2023/07/13 08:53:37;;;;;;;11.25;3.63;;;;;;;;;;5038836;28;20100;-66
2023/07/13 08:56:05;;;;;;;14.13;3.47;;;;;;;;;;4980514;28;20111;-67
2023/07/13 08:58:33;;;;;;;12.35;3.42;;;;;;;;;;4972244;28;20057;-68
2023/07/13 09:01:07;;;;;;;9.27;2.72;;;;;;;;;;4976650;28;20042;-65
2023/07/13 09:03:54;;;;;;;8.80;3.05;;;;;;;;;;4980800;28;20050;-65
2023/07/13 09:06:28;;;;;;;10.70;2.88;;;;;;;;;;4966880;28;20119;-67
2023/07/13 09:09:00;;;;;;;8.85;2.60;;;;;;;;;;5050508;28;20054;-68
2023/07/13 09:11:37;;;;;;;8.43;2.67;;;;;;;;;;4989867;28;20061;-67
2023/07/13 09:14:24;;;;;;;10.38;2.42;;;;;;;;;;4978177;28;20130;-66
2023/07/13 09:16:52;;;;;;;8.07;2.42;;;;;;;;;;5021942;28;20039;-68
2023/07/13 09:19:25;;;;;;;11.45;2.75;;;;;;;;;;5019000;28;20053;-64
2023/07/13 09:21:54;;;;;;;7.20;2.55;;;;;;;;;;5005905;28;20120;-67
2023/07/13 09:24:32;;;;;;;12.07;2.33;;;;;;;;;;4974806;28;20054;-68
2023/07/13 09:27:00;;;;;;;6.57;2.25;;;;;;;;;;5022138;28;20131;-68
2023/07/13 09:29:32;;;;;;;10.00;2.30;;;;;;;;;;4976661;28;20050;-68
2023/07/13 09:32:03;;;;;;;10.90;4.20;;;;;;;;;;5011467;28;20083;-68
2023/07/13 09:34:34;;;;;;;10.90;3.15;;;;;;;;;;5051212;28;20056;-72
2023/07/13 09:37:01;;;;;;;11.57;2.90;;;;;;;;;;5065240;28;20053;-68
2023/07/13 09:39:32;;;;;;;8.13;2.72;;;;;;;;;;5064312;28;20056;-69
2023/07/13 09:42:07;;;;;;;10.38;3.10;;;;;;;;;;5069929;28;20111;-67
2023/07/13 09:44:37;;;;;;;9.10;2.50;;;;;;;;;;4986909;28;20058;-70
2023/07/13 09:47:18;;;;;;;14.25;3.10;;;;;;;;;;5013142;28;20131;-66
2023/07/13 09:49:46;;;;;;;8.60;2.78;;;;;;;;;;5083085;28;20135;-66
2023/07/13 09:52:17;;;;;;;12.88;2.95;;;;;;;;;;5063572;28;20101;-65
2023/07/13 09:54:48;;;;;;;8.73;2.90;;;;;;;;;;5001437;28;20100;-68
2023/07/13 09:57:18;;;;;;;10.02;2.50;;;;;;;;;;5023529;28;20063;-67
2023/07/13 09:59:47;;;;;;;7.35;2.53;;;;;;;;;;5065799;28;20072;-65
2023/07/13 10:02:25;;;;;;;9.73;2.45;;;;;;;;;;5030347;28;20073;-65
2023/07/13 10:04:59;;;;;;;9.45;2.38;;;;;;;;;;4993244;28;20076;-68
2023/07/13 10:07:27;;;;;;;8.77;2.70;;;;;;;;;;4983284;28;20061;-67
2023/07/13 10:09:55;;;;;;;7.30;2.22;;;;;;;;;;4981960;28;20053;-69
2023/07/13 10:12:25;;;;;;;6.28;2.33;;;;;;;;;;5023450;28;20113;-65
2023/07/13 10:14:55;;;;;;;15.43;3.22;;;;;;;;;;5057541;28;20052;-68
2023/07/13 10:17:30;;;;;;;13.05;2.90;;;;;;;;;;5063861;28;20116;-67
2023/07/13 10:20:04;;;;;;;9.38;2.67;;;;;;;;;;4994083;28;20065;-66
2023/07/13 10:22:40;;;;;;;8.55;2.17;;;;;;;;;;4972780;28;20046;-68
2023/07/13 10:25:17;;;;;;;8.48;2.28;;;;;;;;;;4975242;28;20057;-67
2023/07/13 10:27:44;;;;;;;5.40;2.63;;;;;;;;;;5036805;28;20048;-65
2023/07/13 10:30:16;;;;;;;8.93;2.40;;;;;;;;;;5023106;28;20087;-67
2023/07/13 10:32:46;;;;;;;12.20;2.88;;;;;;;;;;4991947;28;20081;-68
2023/07/13 10:35:18;;;;;;;6.82;2.05;;;;;;;;;;4992608;28;20045;-69
2023/07/13 10:37:53;;;;;;;6.40;2.53;;;;;;;;;;4997936;28;20125;-65
2023/07/13 10:40:29;;;;;;;9.68;2.78;;;;;;;;;;4977859;28;20050;-66
2023/07/13 10:42:59;;;;;;;10.80;3.53;;;;;;;;;;5021760;28;20056;-69
2023/07/13 10:45:35;;;;;;;6.78;2.05;;;;;;;;;;5057669;28;20066;-67
2023/07/13 10:48:03;;;;;;;4.97;1.58;;;;;;;;;;5081263;28;20059;-70
2023/07/13 10:50:33;;;;;;;11.50;6.13;;;;;;;;;;5005399;28;20054;-70
2023/07/13 10:53:04;;;;;;;9.52;2.25;;;;;;;;;;5028556;28;20048;-68
2023/07/13 10:55:33;;;;;;;10.88;1.98;;;;;;;;;;4978197;28;20065;-68
2023/07/13 10:58:02;;;;;;;6.93;1.90;;;;;;;;;;5039934;28;20059;-70
2023/07/13 11:00:33;;;;;;;7.72;2.83;;;;;;;;;;5057222;28;20044;-71
2023/07/13 11:03:01;;;;;;;6.97;2.40;;;;;;;;;;4988400;28;20058;-69
2023/07/13 11:05:33;;;;;;;8.98;1.92;;;;;;;;;;4977344;28;20054;-70
2023/07/13 11:08:14;;;;;;;4.72;1.77;;;;;;;;;;4998317;28;20089;-69
2023/07/13 11:10:51;;;;;;;6.95;1.48;;;;;;;;;;4992960;28;20094;-66
2023/07/13 11:13:54;;;;;;;2.70;1.27;;;;;;;;;;5024881;28;20048;-68
2023/07/13 11:16:42;;;;;;;5.40;1.73;;;;;;;;;;5009299;28;20081;-69
2023/07/13 11:19:40;;;;;;;6.28;1.52;;;;;;;;;;5019529;28;20050;-66
2023/07/13 11:22:24;;;;;;;10.23;1.60;;;;;;;;;;4981288;28;20061;-68
2023/07/13 11:25:01;;;;;;;6.18;1.55;;;;;;;;;;4974185;28;20061;-70
2023/07/13 11:27:43;;;;;;;5.03;1.60;;;;;;;;;;4996814;28;20087;-70
2023/07/13 11:30:24;;;;;;;6.90;1.25;;;;;;;;;;4977226;28;20058;-66
2023/07/13 11:32:56;;;;;;;7.05;1.73;;;;;;;;;;5009677;28;20111;-66
2023/07/13 11:35:27;;;;;;;5.28;1.80;;;;;;;;;;5065912;28;20113;-67
2023/07/13 11:37:55;;;;;;;10.23;1.63;;;;;;;;;;5055716;28;20042;-69
2023/07/13 11:40:27;;;;;;;9.60;2.15;;;;;;;;;;4990931;28;20096;-69
2023/07/13 11:43:02;;;;;;;6.05;1.70;;;;;;;;;;4980364;28;20046;-72
2023/07/13 11:45:29;;;;;;;5.47;1.60;;;;;;;;;;4987795;28;20119;-71
2023/07/13 11:48:00;;;;;;;4.68;1.65;;;;;;;;;;4964355;28;20042;-73
2023/07/13 11:50:30;;;;;;;4.65;1.75;;;;;;;;;;4989285;28;20045;-69
2023/07/13 11:53:03;;;;;;;5.03;1.67;;;;;;;;;;5021958;28;20059;-69
2023/07/13 11:55:30;;;;;;;10.65;2.35;;;;;;;;;;5056938;28;20147;-70
2023/07/13 11:58:00;;;;;;;6.53;1.90;;;;;;;;;;5079978;28;20072;-71
2023/07/13 12:00:31;;;;;;;6.93;1.70;;;;;;;;;;5073975;28;20128;-69
2023/07/13 12:03:02;;;;;;;5.88;1.50;;;;;;;;;;5007189;28;20106;-71
2023/07/13 12:05:32;;;;;;;7.05;1.50;;;;;;;;;;5074611;28;20138;-67
2023/07/13 12:08:11;;;;;;;5.47;1.38;;;;;;;;;;5062112;28;20048;-68
2023/07/13 12:10:38;;;;;;;4.50;1.50;;;;;;;;;;5059637;28;20048;-70
2023/07/13 12:13:07;;;;;;;6.25;1.77;;;;;;;;;;5051934;28;20047;-70
2023/07/13 12:15:41;;;;;;;3.90;1.58;;;;;;;;;;5036216;28;20063;-66
2023/07/13 12:18:17;;;;;;;6.60;1.92;;;;;;;;;;5056007;28;20056;-71
2023/07/13 12:20:46;;;;;;;7.18;2.10;;;;;;;;;;4977872;28;20212;-68
2023/07/13 12:23:25;;;;;;;5.97;1.70;;;;;;;;;;5000581;28;20058;-67
2023/07/13 12:25:57;;;;;;;5.88;1.48;;;;;;;;;;4977460;28;20204;-67
2023/07/13 12:28:36;;;;;;;2.22;1.10;;;;;;;;;;4992924;28;20149;-68
2023/07/13 12:31:06;;;;;;;5.28;1.50;;;;;;;;;;5002072;28;20069;-68
2023/07/13 12:33:37;;;;;;;5.50;2.45;;;;;;;;;;4980157;28;20058;-68
2023/07/13 12:36:08;;;;;;;13.38;3.10;;;;;;;;;;4992848;28;20102;-69
2023/07/13 12:38:40;;;;;;;5.13;2.00;;;;;;;;;;5021184;28;20304;-70
2023/07/13 12:41:10;;;;;;;5.55;1.55;;;;;;;;;;5086161;28;20139;-71
2023/07/13 12:43:38;;;;;;;4.22;1.45;;;;;;;;;;5082668;28;20048;-68
2023/07/13 12:46:17;;;;;;;3.58;1.33;;;;;;;;;;5030489;28;20046;-70
2023/07/13 12:48:45;;;;;;;7.00;1.60;;;;;;;;;;5037556;28;20047;-71
2023/07/13 12:51:15;;;;;;;5.90;1.65;;;;;;;;;;5086141;28;20060;-70
2023/07/13 12:53:49;;;;;;;6.07;1.60;;;;;;;;;;5081608;28;20048;-70
2023/07/13 12:56:23;;;;;;;4.80;1.70;;;;;;;;;;5066715;28;20059;-71
2023/07/13 12:58:57;;;;;;;5.13;1.45;;;;;;;;;;5068449;28;20117;-66
2023/07/13 13:01:28;;;;;;;3.38;1.52;;;;;;;;;;5045075;28;20053;-69
2023/07/13 13:04:04;;;;;;;8.85;1.60;;;;;;;;;;4999137;28;20077;-72
2023/07/13 13:06:31;;;;;;;4.38;1.52;;;;;;;;;;4991517;28;20049;-66
2023/07/13 13:09:00;;;;;;;3.63;1.25;;;;;;;;;;5002661;28;20057;-67
2023/07/13 13:11:30;;;;;;;6.22;1.58;;;;;;;;;;5000295;28;20146;-66
2023/07/13 13:13:57;;;;;;;2.97;1.05;;;;;;;;;;5041730;28;20052;-71
2023/07/13 13:16:31;;;;;;;5.07;1.50;;;;;;;;;;5073451;28;20068;-70
2023/07/13 13:19:02;;;;;;;5.00;1.67;;;;;;;;;;5047376;28;20060;-71
2023/07/13 13:21:29;;;;;;;2.70;1.27;;;;;;;;;;5002196;28;20050;-68
2023/07/13 13:23:56;;;;;;;5.25;1.50;;;;;;;;;;5000286;28;20144;-69
2023/07/13 13:26:25;;;;;;;3.53;1.45;;;;;;;;;;4983034;28;20064;-67
2023/07/13 13:28:53;;;;;;;4.70;1.38;;;;;;;;;;5039646;28;20110;-65
2023/07/13 13:31:20;;;;;;;7.35;1.55;;;;;;;;;;5047527;28;20042;-64
2023/07/13 13:33:48;;;;;;;6.30;1.63;;;;;;;;;;4992591;28;20094;-70
2023/07/13 13:36:17;;;;;;;5.93;1.50;;;;;;;;;;4981842;28;20062;-69
2023/07/13 13:38:45;;;;;;;4.90;1.38;;;;;;;;;;4975229;28;21718;-70
2023/07/13 13:41:14;;;;;;;2.70;1.20;;;;;;;;;;4982416;28;20039;-68
2023/07/13 13:43:44;;;;;;;4.88;1.55;;;;;;;;;;4982794;28;20054;-70
2023/07/13 13:46:18;;;;;;;4.43;1.52;;;;;;;;;;4985394;28;20053;-68
2023/07/13 13:48:46;;;;;;;4.25;1.55;;;;;;;;;;5022524;28;20047;-69
2023/07/13 13:51:18;;;;;;;4.03;1.50;;;;;;;;;;5082800;28;20048;-69
2023/07/13 13:53:45;;;;;;;3.53;1.30;;;;;;;;;;5081122;28;20056;-69
2023/07/13 13:56:16;;;;;;;3.47;1.50;;;;;;;;;;5075490;28;20075;-67
2023/07/13 13:58:51;;;;;;;3.00;1.48;;;;;;;;;;5074939;28;20063;-71
2023/07/13 14:01:20;;;;;;;6.05;1.63;;;;;;;;;;5065349;28;20125;-68
2023/07/13 14:03:48;;;;;;;3.88;1.60;;;;;;;;;;4998698;28;20042;-65
2023/07/13 14:06:18;;;;;;;5.57;1.52;;;;;;;;;;4967458;28;20057;-70
2023/07/13 14:08:47;;;;;;;2.78;1.30;;;;;;;;;;4998725;28;20103;-66
2023/07/13 14:11:22;;;;;;;4.45;1.33;;;;;;;;;;4984734;28;20080;-69
2023/07/13 14:13:52;;;;;;;4.18;1.30;;;;;;;;;;5002489;28;20036;-64
2023/07/13 14:16:22;;;;;;;13.60;5.65;;;;;;;;;;5060907;28;20048;-66
2023/07/13 14:18:50;;;;;;;9.73;3.65;;;;;;;;;;5048420;28;20062;-66
2023/07/13 14:21:18;;;;;;;;;;;;;;;;;;4984026;28;20062;-68
2023/07/13 14:23:46;;;;;;;4.22;1.58;;;;;;;;;;4999518;28;19932;-68
2023/07/13 14:26:15;;;;;;;6.03;1.33;;;;;;;;;;4977669;28;20054;-70
2023/07/13 14:28:44;;;;;;;4.95;1.80;;;;;;;;;;4993770;28;20046;-65
2023/07/13 14:31:17;;;;;;;5.90;1.50;;;;;;;;;;4963672;28;20065;-68
2023/07/13 14:33:44;;;;;;;7.47;3.22;;;;;;;;;;4963863;28;20054;-66
2023/07/13 14:36:24;;;;;;;7.00;2.67;;;;;;;;;;4974618;28;20054;-68
2023/07/13 14:38:51;;;;;;;4.18;1.52;;;;;;;;;;4980826;28;20065;-64
2023/07/13 14:41:18;;;;;;;8.88;2.20;;;;;;;;;;4979024;28;20130;-66
2023/07/13 14:43:45;;;;;;;2.35;1.20;;;;;;;;;;4996423;28;20056;-68
2023/07/13 14:46:25;;;;;;;5.03;1.48;;;;;;;;;;5022927;28;20042;-67
2023/07/13 14:48:52;;;;;;;4.43;1.38;;;;;;;;;;5020104;28;20057;-68
2023/07/13 14:51:19;;;;;;;3.60;1.40;;;;;;;;;;4993103;28;20054;-70
2023/07/13 14:53:51;;;;;;;3.92;1.52;;;;;;;;;;4979771;28;20062;-71